createdAt,value
2023-01-21T00:00:29.588Z,22.40
2023-01-21T00:01:29.514Z,19.30
2023-01-21T00:02:29.539Z,21.50
2023-01-21T00:03:29.505Z,22.50
2023-01-21T00:04:30.407Z,22.20
2023-01-21T00:05:29.533Z,18.60
2023-01-21T00:06:29.548Z,20.20
2023-01-21T00:07:29.632Z,21.20
2023-01-21T00:08:29.481Z,24.70
2023-01-21T00:09:29.461Z,20.90
2023-01-21T00:10:29.472Z,20.80
2023-01-21T00:11:29.423Z,21.80
2023-01-21T00:12:29.456Z,25.70
2023-01-21T00:13:29.458Z,23.00
2023-01-21T00:14:29.651Z,21.80
2023-01-21T00:15:29.424Z,21.20
2023-01-21T00:16:29.375Z,23.70
2023-01-21T00:17:29.412Z,22.20
2023-01-21T00:18:30.171Z,21.30
2023-01-21T00:19:29.351Z,20.80
2023-01-21T00:20:29.320Z,21.40
2023-01-21T00:21:30.306Z,20.30
2023-01-21T00:22:29.307Z,20.60
2023-01-21T00:23:30.111Z,20.40
2023-01-21T00:24:29.301Z,23.10
2023-01-21T00:25:29.336Z,21.70
2023-01-21T00:26:29.248Z,23.90
2023-01-21T00:27:29.261Z,24.80
2023-01-21T00:28:29.225Z,22.20
2023-01-21T00:29:29.251Z,26.40
2023-01-21T00:30:29.235Z,23.00
2023-01-21T00:31:29.283Z,23.90
2023-01-21T00:32:29.196Z,22.50
2023-01-21T00:33:29.225Z,24.80
2023-01-21T00:34:29.167Z,21.40
2023-01-21T00:35:29.221Z,22.30
2023-01-21T00:36:29.140Z,20.80
2023-01-21T00:37:29.186Z,25.40
2023-01-21T00:38:29.122Z,26.10
2023-01-21T00:39:29.139Z,35.10
2023-01-21T00:40:29.096Z,31.40
2023-01-21T00:41:29.140Z,29.90
2023-01-21T00:42:29.070Z,30.80
2023-01-21T00:43:29.091Z,33.70
2023-01-21T00:44:29.067Z,31.10
2023-01-21T00:45:29.086Z,28.90
2023-01-21T00:46:29.089Z,30.00
2023-01-21T00:47:29.044Z,26.30
2023-01-21T00:48:29.038Z,23.90
2023-01-21T00:49:29.028Z,24.80
2023-01-21T00:50:28.992Z,27.50
2023-01-21T00:51:29.010Z,27.50
2023-01-21T00:52:28.993Z,25.30
2023-01-21T00:53:28.984Z,22.70
2023-01-21T00:54:28.952Z,29.50
2023-01-21T00:55:28.959Z,27.70
2023-01-21T00:56:28.931Z,27.20
2023-01-21T00:57:28.944Z,26.10
2023-01-21T00:58:28.909Z,26.50
2023-01-21T00:59:28.913Z,24.30
2023-01-21T01:00:28.884Z,25.10
2023-01-21T01:01:28.897Z,26.60
2023-01-21T01:02:28.989Z,24.30
2023-01-21T01:03:28.864Z,25.30
2023-01-21T01:04:28.855Z,28.00
2023-01-21T01:05:29.305Z,26.00
2023-01-21T01:06:28.825Z,25.40
2023-01-21T01:07:28.838Z,22.90
2023-01-21T01:08:28.794Z,22.10
2023-01-21T01:09:28.811Z,21.10
2023-01-21T01:10:28.839Z,21.60
2023-01-21T01:11:28.805Z,27.50
2023-01-21T01:12:28.753Z,28.80
2023-01-21T01:13:28.765Z,39.50
2023-01-21T01:14:28.735Z,28.80
2023-01-21T01:15:28.747Z,29.20
2023-01-21T01:16:28.732Z,26.60
2023-01-21T01:17:28.723Z,26.80
2023-01-21T01:18:28.680Z,25.70
2023-01-21T01:19:28.734Z,25.40
2023-01-21T01:20:28.659Z,25.60
2023-01-21T01:21:28.676Z,23.80
2023-01-21T01:22:28.653Z,24.70
2023-01-21T01:23:28.660Z,23.00
2023-01-21T01:24:28.625Z,20.10
2023-01-21T01:25:28.632Z,22.10
2023-01-21T01:26:28.606Z,25.00
2023-01-21T01:27:28.654Z,27.30
2023-01-21T01:28:28.595Z,28.70
2023-01-21T01:29:28.641Z,26.10
2023-01-21T01:30:28.585Z,22.10
2023-01-21T01:31:28.590Z,21.00
2023-01-21T01:32:28.532Z,20.80
2023-01-21T01:33:28.576Z,19.70
2023-01-21T01:34:28.529Z,20.50
2023-01-21T01:35:28.582Z,18.20
2023-01-21T01:36:28.480Z,21.70
2023-01-21T01:37:28.497Z,19.70
2023-01-21T01:38:28.476Z,17.10
2023-01-21T01:39:28.560Z,23.60
2023-01-21T01:40:28.439Z,20.60
2023-01-21T01:41:28.495Z,22.80
2023-01-21T01:42:28.456Z,22.30
2023-01-21T01:43:28.471Z,20.10
2023-01-21T01:44:28.396Z,18.80
2023-01-21T01:45:28.866Z,18.50
2023-01-21T01:46:29.220Z,16.90
2023-01-21T01:47:28.424Z,19.80
2023-01-21T01:48:28.363Z,26.90
2023-01-21T01:49:28.382Z,24.70
2023-01-21T01:50:28.336Z,22.20
2023-01-21T01:51:28.375Z,25.60
2023-01-21T01:52:28.368Z,24.20
2023-01-21T01:53:28.366Z,22.70
2023-01-21T01:54:28.289Z,19.60
2023-01-21T01:55:28.306Z,19.30
2023-01-21T01:56:28.286Z,19.80
2023-01-21T01:57:28.276Z,21.90
2023-01-21T01:58:28.244Z,24.40
2023-01-21T01:59:28.259Z,23.90
2023-01-21T02:00:28.263Z,21.10
2023-01-21T02:01:28.256Z,17.50
2023-01-21T02:02:28.206Z,19.00
2023-01-21T02:03:28.213Z,19.40
2023-01-21T02:04:28.195Z,20.20
2023-01-21T02:05:28.193Z,19.30
2023-01-21T02:06:28.953Z,16.90
2023-01-21T02:07:28.175Z,20.30
2023-01-21T02:08:28.247Z,19.40
2023-01-21T02:09:28.155Z,17.70
2023-01-21T02:10:28.123Z,19.30
2023-01-21T02:11:28.134Z,16.60
2023-01-21T02:12:28.153Z,15.90
2023-01-21T02:13:28.113Z,16.80
2023-01-21T02:14:28.071Z,15.30
2023-01-21T02:15:28.090Z,16.20
2023-01-21T02:16:28.123Z,16.60
2023-01-21T02:17:28.073Z,17.30
2023-01-21T02:18:28.040Z,17.20
2023-01-21T02:19:28.035Z,17.60
2023-01-21T02:20:27.993Z,18.20
2023-01-21T02:21:28.010Z,18.40
2023-01-21T02:22:28.024Z,17.10
2023-01-21T02:23:28.028Z,18.00
2023-01-21T02:24:27.965Z,17.40
2023-01-21T02:25:27.980Z,15.80
2023-01-21T02:26:27.956Z,19.20
2023-01-21T02:27:31.043Z,15.30
2023-01-21T02:28:27.932Z,13.30
2023-01-21T02:29:27.963Z,17.10
2023-01-21T02:30:27.899Z,17.80
2023-01-21T02:31:27.948Z,19.10
2023-01-21T02:32:27.868Z,15.70
2023-01-21T02:33:27.897Z,18.70
2023-01-21T02:34:27.857Z,16.70
2023-01-21T02:35:27.881Z,15.10
2023-01-21T02:36:27.848Z,17.20
2023-01-21T02:37:27.838Z,17.70
2023-01-21T02:38:27.803Z,17.00
2023-01-21T02:39:27.824Z,17.60
2023-01-21T02:40:27.786Z,18.80
2023-01-21T02:41:27.839Z,14.00
2023-01-21T02:42:27.766Z,15.50
2023-01-21T02:43:27.769Z,18.30
2023-01-21T02:44:27.738Z,19.50
2023-01-21T02:45:27.745Z,19.80
2023-01-21T02:46:28.532Z,15.00
2023-01-21T02:47:27.758Z,21.20
2023-01-21T02:48:27.685Z,18.20
2023-01-21T02:49:27.725Z,17.70
2023-01-21T02:50:27.703Z,17.00
2023-01-21T02:51:27.685Z,17.00
2023-01-21T02:52:27.681Z,16.80
2023-01-21T02:53:27.703Z,17.60
2023-01-21T02:54:27.626Z,16.00
2023-01-21T02:55:27.673Z,17.60
2023-01-21T02:56:27.699Z,16.50
2023-01-21T02:57:27.622Z,16.20
2023-01-21T02:58:27.595Z,22.50
2023-01-21T02:59:27.604Z,21.60
2023-01-21T03:00:27.601Z,20.40
2023-01-21T03:01:27.614Z,23.20
2023-01-21T03:02:27.546Z,18.80
2023-01-21T03:03:27.553Z,19.50
2023-01-21T03:04:27.610Z,17.00
2023-01-21T03:05:27.543Z,16.30
2023-01-21T03:06:27.500Z,17.60
2023-01-21T03:07:27.530Z,16.10
2023-01-21T03:08:28.358Z,17.10
2023-01-21T03:09:27.523Z,15.90
2023-01-21T03:10:27.513Z,15.50
2023-01-21T03:11:27.476Z,16.50
2023-01-21T03:12:27.431Z,15.90
2023-01-21T03:13:27.461Z,15.50
2023-01-21T03:14:27.414Z,13.70
2023-01-21T03:15:27.419Z,16.40
2023-01-21T03:16:27.562Z,15.10
2023-01-21T03:17:27.577Z,14.80
2023-01-21T03:18:27.386Z,16.50
2023-01-21T03:19:27.381Z,14.30
2023-01-21T03:20:27.392Z,18.70
2023-01-21T03:21:27.364Z,16.10
2023-01-21T03:22:27.327Z,13.20
2023-01-21T03:23:27.344Z,15.70
2023-01-21T03:24:27.312Z,16.20
2023-01-21T03:25:27.356Z,14.80
2023-01-21T03:26:27.289Z,14.00
2023-01-21T03:27:27.307Z,14.90
2023-01-21T03:28:27.303Z,13.40
2023-01-21T03:29:27.278Z,15.00
2023-01-21T03:30:27.239Z,13.90
2023-01-21T03:31:27.292Z,16.40
2023-01-21T03:32:27.242Z,17.10
2023-01-21T03:33:27.231Z,16.70
2023-01-21T03:34:27.192Z,14.50
2023-01-21T03:35:27.287Z,16.40
2023-01-21T03:36:27.204Z,14.20
2023-01-21T03:37:27.216Z,16.30
2023-01-21T03:38:27.155Z,19.90
2023-01-21T03:39:27.162Z,17.50
2023-01-21T03:40:27.133Z,14.20
2023-01-21T03:41:27.163Z,15.00
2023-01-21T03:42:27.115Z,13.60
2023-01-21T03:43:27.112Z,14.30
2023-01-21T03:44:27.099Z,15.90
2023-01-21T03:45:27.124Z,12.90
2023-01-21T03:46:28.038Z,15.30
2023-01-21T03:47:27.095Z,16.50
2023-01-21T03:48:27.056Z,17.20
2023-01-21T03:49:27.054Z,18.90
2023-01-21T03:50:27.100Z,16.50
2023-01-21T03:51:27.031Z,17.20
2023-01-21T03:52:26.996Z,15.40
2023-01-21T03:53:27.002Z,15.20
2023-01-21T03:54:26.980Z,14.00
2023-01-21T03:55:27.034Z,12.90
2023-01-21T03:56:26.960Z,14.10
2023-01-21T03:57:26.954Z,14.80
2023-01-21T03:58:26.949Z,15.20
2023-01-21T03:59:26.933Z,13.50
2023-01-21T04:00:26.905Z,15.80
2023-01-21T04:01:26.936Z,16.00
2023-01-21T04:02:26.953Z,13.60
2023-01-21T04:03:26.893Z,12.40
2023-01-21T04:04:26.867Z,12.70
2023-01-21T04:05:26.872Z,12.20
2023-01-21T04:06:26.852Z,13.80
2023-01-21T04:07:26.868Z,15.20
2023-01-21T04:08:26.866Z,14.20
2023-01-21T04:09:26.841Z,14.30
2023-01-21T04:10:26.818Z,14.40
2023-01-21T04:11:26.808Z,17.30
2023-01-21T04:12:26.804Z,18.60
2023-01-21T04:13:26.809Z,18.30
2023-01-21T04:14:26.760Z,16.50
2023-01-21T04:15:26.786Z,14.60
2023-01-21T04:16:26.775Z,18.00
2023-01-21T04:17:26.748Z,13.80
2023-01-21T04:18:26.755Z,13.00
2023-01-21T04:19:26.752Z,15.00
2023-01-21T04:20:26.681Z,13.80
2023-01-21T04:21:26.727Z,12.90
2023-01-21T04:22:26.660Z,15.50
2023-01-21T04:23:26.674Z,16.20
2023-01-21T04:24:26.679Z,16.60
2023-01-21T04:25:26.679Z,15.30
2023-01-21T04:26:26.629Z,12.20
2023-01-21T04:27:26.631Z,16.20
2023-01-21T04:28:26.628Z,13.90
2023-01-21T04:29:26.646Z,13.60
2023-01-21T04:30:27.288Z,13.90
2023-01-21T04:31:26.666Z,12.60
2023-01-21T04:32:26.583Z,13.60
2023-01-21T04:33:26.540Z,14.60
2023-01-21T04:34:26.573Z,13.50
2023-01-21T04:35:26.525Z,15.00
2023-01-21T04:36:26.539Z,13.70
2023-01-21T04:37:26.518Z,14.60
2023-01-21T04:38:26.515Z,14.90
2023-01-21T04:39:26.504Z,13.70
2023-01-21T04:40:26.524Z,13.20
2023-01-21T04:41:26.452Z,15.50
2023-01-21T04:42:26.506Z,17.00
2023-01-21T04:43:26.428Z,14.80
2023-01-21T04:44:26.467Z,12.90
2023-01-21T04:45:26.418Z,15.80
2023-01-21T04:46:27.233Z,13.10
2023-01-21T04:47:26.476Z,13.80
2023-01-21T04:48:26.395Z,15.20
2023-01-21T04:49:26.414Z,16.60
2023-01-21T04:50:26.502Z,16.40
2023-01-21T04:51:26.367Z,15.50
2023-01-21T04:52:26.371Z,13.90
2023-01-21T04:53:26.327Z,15.40
2023-01-21T04:54:26.346Z,14.80
2023-01-21T04:55:26.550Z,15.80
2023-01-21T04:56:26.317Z,12.90
2023-01-21T04:57:26.291Z,14.70
2023-01-21T04:58:26.308Z,14.30
2023-01-21T04:59:26.276Z,15.10
2023-01-21T05:00:26.274Z,11.30
2023-01-21T05:01:26.351Z,12.90
2023-01-21T05:02:26.328Z,13.10
2023-01-21T05:03:26.233Z,12.70
2023-01-21T05:04:26.235Z,13.70
2023-01-21T05:05:26.230Z,13.40
2023-01-21T05:06:26.221Z,12.50
2023-01-21T05:07:26.186Z,12.30
2023-01-21T05:08:26.199Z,13.00
2023-01-21T05:09:26.295Z,13.20
2023-01-21T05:10:26.180Z,12.00
2023-01-21T05:11:26.198Z,14.00
2023-01-21T05:12:26.145Z,13.20
2023-01-21T05:13:26.110Z,12.60
2023-01-21T05:14:26.135Z,13.40
2023-01-21T05:15:26.127Z,12.50
2023-01-21T05:16:26.114Z,11.50
2023-01-21T05:17:26.087Z,12.70
2023-01-21T05:18:26.090Z,12.20
2023-01-21T05:19:26.064Z,14.80
2023-01-21T05:20:26.089Z,16.50
2023-01-21T05:21:26.011Z,12.50
2023-01-21T05:22:26.036Z,15.10
2023-01-21T05:23:26.029Z,13.50
2023-01-21T05:24:26.009Z,13.00
2023-01-21T05:25:25.984Z,13.80
2023-01-21T05:26:25.986Z,15.80
2023-01-21T05:27:25.979Z,12.50
2023-01-21T05:28:25.978Z,11.50
2023-01-21T05:29:25.955Z,12.50
2023-01-21T05:30:25.981Z,13.30
2023-01-21T05:31:26.021Z,14.50
2023-01-21T05:32:25.944Z,13.80
2023-01-21T05:33:25.949Z,12.00
2023-01-21T05:34:25.930Z,11.70
2023-01-21T05:35:25.874Z,11.90
2023-01-21T05:36:25.877Z,13.40
2023-01-21T05:37:25.895Z,14.00
2023-01-21T05:38:25.867Z,13.10
2023-01-21T05:39:25.846Z,13.10
2023-01-21T05:40:25.847Z,13.80
2023-01-21T05:41:25.843Z,12.50
2023-01-21T05:42:25.815Z,13.00
2023-01-21T05:43:25.786Z,12.90
2023-01-21T05:44:25.817Z,13.90
2023-01-21T05:45:25.765Z,12.80
2023-01-21T05:46:25.823Z,13.10
2023-01-21T05:47:25.794Z,13.00
2023-01-21T05:48:25.767Z,13.60
2023-01-21T05:49:25.733Z,13.80
2023-01-21T05:50:25.739Z,13.60
2023-01-21T05:51:25.829Z,13.40
2023-01-21T05:52:25.704Z,10.50
2023-01-21T05:53:25.681Z,12.90
2023-01-21T05:54:25.711Z,11.60
2023-01-21T05:55:25.665Z,13.10
2023-01-21T05:56:25.689Z,13.40
2023-01-21T05:57:25.644Z,14.60
2023-01-21T05:58:25.669Z,14.70
2023-01-21T05:59:25.633Z,13.90
2023-01-21T06:00:25.648Z,13.90
2023-01-21T06:01:25.591Z,13.20
2023-01-21T06:02:25.677Z,13.60
2023-01-21T06:03:25.604Z,13.70
2023-01-21T06:04:25.581Z,12.40
2023-01-21T06:05:25.557Z,13.20
2023-01-21T06:06:25.575Z,13.80
2023-01-21T06:07:25.589Z,14.10
2023-01-21T06:08:25.555Z,13.50
2023-01-21T06:09:25.517Z,13.10
2023-01-21T06:10:25.579Z,14.00
2023-01-21T06:11:26.400Z,12.40
2023-01-21T06:12:25.520Z,12.80
2023-01-21T06:13:25.473Z,14.10
2023-01-21T06:14:25.487Z,12.80
2023-01-21T06:15:25.486Z,14.20
2023-01-21T06:16:25.453Z,14.90
2023-01-21T06:17:25.430Z,15.10
2023-01-21T06:18:25.461Z,11.60
2023-01-21T06:19:25.408Z,12.10
2023-01-21T06:20:25.419Z,14.00
2023-01-21T06:21:25.427Z,14.30
2023-01-21T06:22:25.397Z,14.90
2023-01-21T06:23:25.348Z,16.10
2023-01-21T06:24:25.378Z,16.10
2023-01-21T06:25:25.349Z,14.40
2023-01-21T06:26:27.150Z,15.40
2023-01-21T06:27:25.341Z,16.30
2023-01-21T06:28:25.326Z,13.90
2023-01-21T06:29:25.309Z,15.90
2023-01-21T06:30:25.363Z,15.30
2023-01-21T06:31:25.328Z,17.20
2023-01-21T06:32:25.297Z,16.10
2023-01-21T06:33:25.269Z,13.20
2023-01-21T06:34:25.262Z,15.90
2023-01-21T06:35:25.227Z,16.10
2023-01-21T06:36:25.254Z,14.40
2023-01-21T06:37:25.217Z,17.00
2023-01-21T06:38:25.212Z,15.20
2023-01-21T06:39:25.197Z,14.20
2023-01-21T06:40:25.357Z,17.00
2023-01-21T06:41:25.156Z,17.70
2023-01-21T06:42:25.174Z,15.60
2023-01-21T06:43:25.164Z,16.70
2023-01-21T06:44:25.158Z,16.80
2023-01-21T06:45:25.125Z,16.50
2023-01-21T06:46:25.281Z,16.00
2023-01-21T06:47:25.116Z,16.30
2023-01-21T06:48:25.113Z,17.60
2023-01-21T06:49:25.102Z,16.40
2023-01-21T06:50:25.092Z,17.40
2023-01-21T06:51:25.070Z,16.40
2023-01-21T06:52:25.806Z,15.80
2023-01-21T06:53:25.381Z,17.30
2023-01-21T06:54:25.045Z,17.70
2023-01-21T06:55:25.036Z,15.40
2023-01-21T06:56:25.019Z,17.80
2023-01-21T06:57:24.992Z,15.80
2023-01-21T06:58:25.013Z,17.70
2023-01-21T06:59:25.000Z,18.00
2023-01-21T07:00:24.995Z,16.20
2023-01-21T07:01:24.956Z,19.30
2023-01-21T07:02:25.050Z,17.10
2023-01-21T07:03:24.923Z,16.70
2023-01-21T07:04:24.945Z,17.10
2023-01-21T07:05:24.912Z,17.20
2023-01-21T07:06:25.471Z,17.10
2023-01-21T07:07:24.893Z,16.30
2023-01-21T07:08:24.905Z,18.20
2023-01-21T07:09:24.882Z,17.10
2023-01-21T07:10:24.897Z,17.20
2023-01-21T07:11:24.839Z,16.10
2023-01-21T07:12:24.856Z,19.60
2023-01-21T07:13:25.589Z,17.90
2023-01-21T07:14:25.738Z,15.90
2023-01-21T07:15:24.793Z,15.70
2023-01-21T07:16:24.935Z,20.70
2023-01-21T07:17:24.796Z,21.30
2023-01-21T07:18:24.789Z,16.10
2023-01-21T07:19:24.807Z,18.30
2023-01-21T07:20:24.767Z,17.30
2023-01-21T07:21:24.741Z,19.00
2023-01-21T07:22:24.751Z,17.60
2023-01-21T07:23:24.708Z,21.00
2023-01-21T07:24:24.739Z,18.10
2023-01-21T07:25:24.689Z,17.50
2023-01-21T07:26:24.696Z,19.60
2023-01-21T07:27:24.693Z,18.20
2023-01-21T07:28:24.687Z,17.50
2023-01-21T07:29:24.665Z,21.50
2023-01-21T07:30:24.693Z,18.70
2023-01-21T07:31:24.801Z,19.00
2023-01-21T07:32:24.638Z,19.00
2023-01-21T07:33:25.454Z,20.70
2023-01-21T07:34:24.627Z,20.80
2023-01-21T07:35:24.585Z,20.70
2023-01-21T07:36:24.613Z,18.90
2023-01-21T07:37:24.574Z,21.70
2023-01-21T07:38:24.566Z,30.50
2023-01-21T07:39:24.653Z,24.30
2023-01-21T07:40:24.563Z,23.60
2023-01-21T07:41:24.523Z,25.10
2023-01-21T07:42:24.570Z,22.90
2023-01-21T07:43:24.496Z,24.50
2023-01-21T07:44:24.513Z,20.00
2023-01-21T07:45:24.474Z,23.20
2023-01-21T07:46:24.571Z,22.40
2023-01-21T07:47:24.476Z,24.70
2023-01-21T07:48:24.487Z,23.70
2023-01-21T07:49:24.462Z,26.20
2023-01-21T07:50:24.453Z,23.30
2023-01-21T07:51:24.522Z,21.50
2023-01-21T07:52:24.430Z,23.80
2023-01-21T07:53:24.420Z,23.90
2023-01-21T07:54:24.436Z,24.60
2023-01-21T07:55:24.411Z,25.10
2023-01-21T07:56:24.424Z,22.70
2023-01-21T07:57:24.373Z,25.30
2023-01-21T07:58:24.390Z,23.70
2023-01-21T07:59:24.356Z,22.80
2023-01-21T08:00:24.374Z,23.10
2023-01-21T08:01:25.473Z,25.10
2023-01-21T08:02:24.415Z,23.20
2023-01-21T08:03:24.354Z,22.80
2023-01-21T08:04:24.314Z,24.40
2023-01-21T08:05:24.263Z,25.00
2023-01-21T08:06:24.272Z,23.70
2023-01-21T08:07:24.250Z,25.30
2023-01-21T08:08:24.250Z,24.70
2023-01-21T08:09:24.228Z,24.60
2023-01-21T08:10:24.343Z,25.00
2023-01-21T08:11:24.211Z,23.00
2023-01-21T08:12:27.023Z,25.10
2023-01-21T08:13:24.189Z,27.90
2023-01-21T08:14:25.087Z,24.60
2023-01-21T08:15:24.247Z,25.90
2023-01-21T08:16:24.233Z,23.90
2023-01-21T08:17:24.196Z,24.30
2023-01-21T08:18:24.145Z,25.80
2023-01-21T08:19:24.130Z,26.20
2023-01-21T08:20:24.186Z,25.10
2023-01-21T08:21:24.090Z,24.90
2023-01-21T08:22:24.104Z,26.00
2023-01-21T08:23:24.064Z,27.60
2023-01-21T08:24:24.700Z,23.70
2023-01-21T08:25:24.046Z,24.30
2023-01-21T08:26:25.674Z,26.50
2023-01-21T08:27:24.025Z,25.20
2023-01-21T08:28:24.044Z,24.00
2023-01-21T08:29:24.018Z,28.00
2023-01-21T08:30:24.018Z,26.50
2023-01-21T08:31:24.000Z,29.40
2023-01-21T08:32:23.986Z,29.70
2023-01-21T08:33:23.951Z,64.70
2023-01-21T08:34:24.061Z,94.60
2023-01-21T08:35:23.942Z,76.50
2023-01-21T08:36:23.944Z,81.00
2023-01-21T08:37:23.980Z,90.80
2023-01-21T08:38:23.927Z,80.80
2023-01-21T08:39:24.049Z,130.80
2023-01-21T08:40:23.939Z,121.50
2023-01-21T08:41:23.885Z,248.70
2023-01-21T08:42:23.882Z,219.40
2023-01-21T08:43:23.861Z,168.80
2023-01-21T08:44:23.853Z,109.90
2023-01-21T08:45:23.860Z,107.70
2023-01-21T08:46:23.855Z,97.50
2023-01-21T08:47:23.835Z,107.20
2023-01-21T08:48:23.799Z,193.60
2023-01-21T08:49:23.820Z,170.10
2023-01-21T08:50:23.768Z,174.30
2023-01-21T08:51:23.837Z,265.90
2023-01-21T08:52:23.743Z,202.60
2023-01-21T08:53:23.774Z,173.60
2023-01-21T08:54:23.719Z,140.00
2023-01-21T08:55:23.861Z,152.10
2023-01-21T08:56:23.711Z,100.80
2023-01-21T08:57:23.709Z,111.90
2023-01-21T08:58:23.689Z,99.40
2023-01-21T08:59:23.781Z,71.90
2023-01-21T09:00:23.663Z,71.90
2023-01-21T09:01:23.733Z,58.00
2023-01-21T09:02:23.713Z,49.60
2023-01-21T09:03:23.669Z,48.20
2023-01-21T09:04:23.707Z,49.30
2023-01-21T09:05:23.663Z,44.10
2023-01-21T09:06:23.600Z,39.40
2023-01-21T09:07:23.618Z,37.70
2023-01-21T09:08:23.604Z,37.40
2023-01-21T09:09:23.599Z,35.90
2023-01-21T09:10:23.561Z,33.10
2023-01-21T09:11:23.617Z,35.30
2023-01-21T09:12:23.542Z,32.90
2023-01-21T09:13:23.540Z,34.40
2023-01-21T09:14:23.507Z,31.20
2023-01-21T09:15:23.576Z,31.50
2023-01-21T09:16:23.502Z,33.70
2023-01-21T09:17:23.509Z,31.50
2023-01-21T09:18:23.484Z,31.00
2023-01-21T09:19:23.484Z,31.70
2023-01-21T09:20:23.445Z,33.40
2023-01-21T09:21:23.450Z,30.60
2023-01-21T09:22:23.482Z,27.40
2023-01-21T09:23:23.444Z,28.80
2023-01-21T09:24:23.383Z,29.50
2023-01-21T09:25:23.498Z,44.40
2023-01-21T09:26:23.362Z,37.40
2023-01-21T09:27:23.375Z,27.80
2023-01-21T09:28:23.383Z,28.90
2023-01-21T09:29:23.370Z,30.00
2023-01-21T09:30:23.324Z,26.90
2023-01-21T09:31:23.408Z,27.80
2023-01-21T09:32:23.304Z,29.10
2023-01-21T09:33:23.313Z,28.80
2023-01-21T09:34:23.274Z,27.40
2023-01-21T09:35:23.353Z,32.80
2023-01-21T09:36:23.274Z,26.50
2023-01-21T09:37:23.278Z,30.80
2023-01-21T09:38:23.502Z,24.60
2023-01-21T09:39:23.242Z,24.50
2023-01-21T09:40:23.219Z,21.00
2023-01-21T09:41:23.232Z,22.60
2023-01-21T09:42:23.201Z,24.60
2023-01-21T09:43:23.201Z,21.60
2023-01-21T09:44:23.220Z,23.20
2023-01-21T09:45:23.360Z,20.20
2023-01-21T09:46:23.186Z,19.70
2023-01-21T09:47:23.241Z,22.70
2023-01-21T09:48:23.148Z,19.80
2023-01-21T09:49:23.131Z,20.60
2023-01-21T09:50:23.111Z,21.10
2023-01-21T09:51:23.192Z,19.00
2023-01-21T09:52:23.115Z,18.90
2023-01-21T09:53:23.122Z,19.40
2023-01-21T09:54:23.964Z,18.60
2023-01-21T09:55:23.168Z,20.90
2023-01-21T09:56:23.082Z,20.00
2023-01-21T09:57:23.163Z,20.00
2023-01-21T09:58:23.022Z,19.20
2023-01-21T09:59:23.040Z,20.00
2023-01-21T10:00:22.989Z,20.20
2023-01-21T10:01:23.061Z,21.30
2023-01-21T10:02:22.981Z,17.80
2023-01-21T10:03:22.982Z,18.60
2023-01-21T10:04:23.025Z,18.20
2023-01-21T10:05:22.972Z,19.90
2023-01-21T10:06:22.921Z,20.80
2023-01-21T10:07:23.546Z,19.90
2023-01-21T10:08:22.909Z,21.70
2023-01-21T10:09:22.909Z,19.50
2023-01-21T10:10:22.906Z,18.40
2023-01-21T10:11:23.029Z,18.80
2023-01-21T10:12:22.927Z,19.90
2023-01-21T10:13:22.893Z,17.70
2023-01-21T10:14:22.827Z,19.30
2023-01-21T10:15:22.847Z,20.80
2023-01-21T10:16:22.856Z,20.50
2023-01-21T10:17:22.987Z,17.70
2023-01-21T10:18:22.809Z,19.60
2023-01-21T10:19:22.828Z,20.10
2023-01-21T10:20:22.789Z,19.20
2023-01-21T10:21:22.785Z,20.90
2023-01-21T10:22:22.776Z,20.70
2023-01-21T10:23:22.778Z,18.60
2023-01-21T10:24:22.740Z,21.60
2023-01-21T10:25:22.739Z,22.00
2023-01-21T10:26:22.703Z,18.90
2023-01-21T10:27:22.718Z,20.50
2023-01-21T10:28:22.778Z,20.10
2023-01-21T10:29:22.749Z,19.20
2023-01-21T10:30:22.694Z,19.80
2023-01-21T10:31:22.773Z,20.00
2023-01-21T10:32:22.632Z,19.50
2023-01-21T10:33:22.670Z,20.30
2023-01-21T10:34:22.631Z,20.40
2023-01-21T10:35:22.638Z,19.00
2023-01-21T10:36:22.600Z,20.10
2023-01-21T10:37:23.401Z,19.30
2023-01-21T10:38:22.611Z,28.00
2023-01-21T10:39:22.591Z,32.80
2023-01-21T10:40:22.547Z,23.20
2023-01-21T10:41:22.567Z,19.40
2023-01-21T10:42:22.522Z,49.50
2023-01-21T10:43:22.545Z,53.30
2023-01-21T10:44:22.494Z,131.10
2023-01-21T10:45:22.550Z,22.90
2023-01-21T10:46:22.536Z,17.40
2023-01-21T10:47:22.495Z,19.80
2023-01-21T10:48:22.454Z,18.30
2023-01-21T10:49:22.462Z,21.10
2023-01-21T10:50:22.438Z,20.70
2023-01-21T10:51:22.488Z,18.70
2023-01-21T10:52:22.422Z,17.80
2023-01-21T10:53:22.455Z,16.60
2023-01-21T10:54:22.802Z,17.70
2023-01-21T10:55:22.416Z,16.10
2023-01-21T10:56:22.361Z,18.30
2023-01-21T10:57:22.453Z,16.40
2023-01-21T10:58:22.422Z,14.60
2023-01-21T10:59:22.378Z,13.80
2023-01-21T11:00:22.312Z,15.80
2023-01-21T11:01:22.337Z,15.90
2023-01-21T11:02:22.352Z,14.60
2023-01-21T11:03:22.303Z,15.80
2023-01-21T11:04:22.285Z,17.70
2023-01-21T11:05:22.306Z,15.90
2023-01-21T11:06:23.437Z,16.10
2023-01-21T11:07:22.278Z,14.30
2023-01-21T11:08:22.239Z,15.30
2023-01-21T11:09:23.134Z,15.50
2023-01-21T11:10:22.245Z,15.50
2023-01-21T11:11:22.210Z,14.40
2023-01-21T11:12:23.101Z,13.00
2023-01-21T11:13:26.067Z,14.80
2023-01-21T11:14:22.174Z,14.20
2023-01-21T11:15:22.178Z,14.30
2023-01-21T11:16:22.648Z,12.10
2023-01-21T11:17:23.963Z,14.30
2023-01-21T11:18:22.148Z,14.00
2023-01-21T11:19:22.160Z,13.80
2023-01-21T11:20:22.118Z,14.90
2023-01-21T11:21:22.152Z,14.20
2023-01-21T11:22:22.087Z,13.60
2023-01-21T11:23:22.096Z,13.40
2023-01-21T11:24:22.064Z,13.40
2023-01-21T11:25:22.079Z,12.60
2023-01-21T11:26:22.017Z,13.40
2023-01-21T11:27:22.062Z,14.80
2023-01-21T11:28:22.046Z,12.50
2023-01-21T11:29:22.018Z,13.70
2023-01-21T11:30:44.126Z,12.60
2023-01-21T11:31:23.142Z,12.80
2023-01-21T11:32:22.209Z,12.60
2023-01-21T11:33:21.964Z,13.90
2023-01-21T11:34:21.949Z,13.70
2023-01-21T11:35:21.962Z,12.20
2023-01-21T11:36:21.909Z,12.80
2023-01-21T11:37:21.919Z,12.70
2023-01-21T11:38:21.943Z,14.70
2023-01-21T11:39:21.912Z,12.60
2023-01-21T11:40:22.360Z,11.80
2023-01-21T11:41:22.106Z,11.80
2023-01-21T11:42:21.839Z,11.60
2023-01-21T11:43:21.868Z,12.90
2023-01-21T11:44:21.823Z,12.40
2023-01-21T11:45:21.835Z,12.50
2023-01-21T11:46:21.856Z,13.40
2023-01-21T11:47:21.821Z,14.20
2023-01-21T11:48:21.769Z,12.80
2023-01-21T11:49:21.788Z,13.30
2023-01-21T11:50:23.287Z,13.00
2023-01-21T11:51:24.978Z,15.10
2023-01-21T11:52:28.207Z,15.70
2023-01-21T11:53:26.736Z,32.60
2023-01-21T11:54:27.499Z,17.10
2023-01-21T11:55:21.806Z,16.70
2023-01-21T11:56:21.713Z,17.00
2023-01-21T11:57:21.704Z,15.30
2023-01-21T11:58:21.662Z,24.60
2023-01-21T11:59:21.822Z,17.80
2023-01-21T12:00:21.659Z,26.20
2023-01-21T12:01:21.685Z,17.30
2023-01-21T12:02:21.710Z,15.00
2023-01-21T12:03:21.636Z,16.80
2023-01-21T12:04:21.607Z,15.10
2023-01-21T12:05:21.625Z,14.50
2023-01-21T12:06:21.585Z,15.20
2023-01-21T12:07:21.586Z,15.40
2023-01-21T12:08:21.555Z,17.20
2023-01-21T12:09:21.564Z,21.70
2023-01-21T12:10:21.525Z,28.20
2023-01-21T12:11:21.546Z,34.00
2023-01-21T12:12:21.515Z,37.80
2023-01-21T12:13:21.535Z,22.00
2023-01-21T12:14:21.517Z,17.30
2023-01-21T12:15:21.495Z,23.80
2023-01-21T12:16:21.469Z,19.90
2023-01-21T12:17:21.472Z,21.30
2023-01-21T12:18:21.442Z,18.70
2023-01-21T12:19:22.306Z,14.30
2023-01-21T12:20:21.545Z,13.00
2023-01-21T12:21:21.427Z,15.10
2023-01-21T12:22:21.400Z,13.30
2023-01-21T12:23:21.402Z,44.00
2023-01-21T12:24:21.372Z,37.50
2023-01-21T12:25:21.404Z,21.60
2023-01-21T12:26:21.351Z,19.70
2023-01-21T12:27:21.363Z,34.50
2023-01-21T12:28:21.337Z,26.50
2023-01-21T12:29:21.374Z,26.20
2023-01-21T12:30:21.323Z,15.90
2023-01-21T12:31:21.395Z,14.20
2023-01-21T12:32:23.611Z,40.00
2023-01-21T12:33:21.333Z,28.30
2023-01-21T12:34:21.288Z,20.40
2023-01-21T12:35:21.292Z,20.50
2023-01-21T12:36:21.287Z,190.00
2023-01-21T12:37:21.250Z,22.20
2023-01-21T12:38:22.047Z,40.60
2023-01-21T12:39:21.289Z,25.40
2023-01-21T12:40:22.082Z,16.60
2023-01-21T12:41:21.979Z,15.20
2023-01-21T12:42:21.480Z,32.50
2023-01-21T12:43:21.244Z,15.80
2023-01-21T12:44:21.155Z,30.60
2023-01-21T12:45:21.961Z,62.40
2023-01-21T12:46:21.664Z,39.90
2023-01-21T12:47:21.153Z,64.00
2023-01-21T12:48:21.142Z,20.90
2023-01-21T12:49:21.131Z,23.10
2023-01-21T12:50:21.098Z,16.20
2023-01-21T12:51:21.431Z,12.70
2023-01-21T12:52:21.069Z,13.90